Time;durP1;ratioP1;P1;durP2;ratioP2;P2;SDS_P1;SDS_P2;PMS_P1;PMS_P2;Temp;Humidity;BMP_temperature;BMP_pressure;BME280_temperature;BME280_humidity;BME280_pressure;Samples;Min_cycle;Max_cycle;Signal;HPM_P1;HPM_P2
2022/11/05 00:09:58;;;;;;;;;;;5.50;99.90;;;;;;5034028;28;19925;-95
2022/11/05 00:17:52;;;;;;;;;;;5.40;99.90;;;;;;5023284;28;19931;-95
2022/11/05 00:20:18;;;;;;;;;;;5.50;99.90;;;;;;5007158;28;19925;-95
2022/11/05 00:25:29;;;;;;;;;;;5.70;99.90;;;;;;5042597;28;19924;-94
2022/11/05 00:27:58;;;;;;;;;;;5.30;99.90;;;;;;5038863;28;19952;-94
2022/11/05 00:30:24;;;;;;;;;;;5.20;99.90;;;;;;5056793;28;19992;-94
2022/11/05 00:32:51;;;;;;;;;;;5.60;99.90;;;;;;5043420;28;19947;-95
2022/11/05 00:35:17;;;;;;;;;;;5.10;99.90;;;;;;5033785;28;20036;-95
2022/11/05 00:37:43;;;;;;;;;;;5.20;99.90;;;;;;5024839;28;20004;-94
2022/11/05 00:40:09;;;;;;;;;;;5.10;99.90;;;;;;4996895;28;19932;-94
2022/11/05 00:45:19;;;;;;;;;;;5.10;99.90;;;;;;5041158;28;20391;-95
2022/11/05 00:50:29;;;;;;;;;;;5.10;99.90;;;;;;5045053;28;19928;-94
2022/11/05 00:52:55;;;;;;;;;;;5.10;99.90;;;;;;5060113;28;19953;-94
2022/11/05 00:55:27;;;;;;;;;;;5.10;99.90;;;;;;5050721;28;19921;-95
2022/11/05 00:57:53;;;;;;;;;;;5.10;99.90;;;;;;5012360;28;19929;-94
2022/11/05 01:00:19;;;;;;;;;;;5.10;99.90;;;;;;5021247;28;19924;-95
2022/11/05 01:02:44;;;;;;;;;;;5.10;99.90;;;;;;5022318;28;19933;-94
2022/11/05 01:05:10;;;;;;;;;;;5.00;99.90;;;;;;5024030;28;19924;-95
2022/11/05 01:07:35;;;;;;;;;;;5.00;99.90;;;;;;5037364;28;19928;-95
2022/11/05 01:10:01;;;;;;;;;;;5.00;99.90;;;;;;5058172;28;19925;-95
2022/11/05 01:12:27;;;;;;;;;;;4.90;99.90;;;;;;5046407;28;19925;-94
2022/11/05 01:14:53;;;;;;;;;;;4.90;99.90;;;;;;5031948;28;19925;-95
2022/11/05 01:17:18;;;;;;;;;;;4.90;99.90;;;;;;5010047;28;19925;-96
2022/11/05 01:19:44;;;;;;;;;;;4.90;99.90;;;;;;5045366;28;20280;-95
2022/11/05 01:22:10;;;;;;;;;;;4.90;99.90;;;;;;5045900;28;19924;-95
2022/11/05 01:24:35;;;;;;;;;;;4.80;99.90;;;;;;5011076;28;20063;-95
2022/11/05 01:27:01;;;;;;;;;;;4.80;99.90;;;;;;5026548;28;19974;-95
2022/11/05 01:29:26;;;;;;;;;;;4.90;99.90;;;;;;5047131;28;19929;-94
2022/11/05 01:31:52;;;;;;;;;;;4.90;99.90;;;;;;5048800;28;20264;-93
2022/11/05 01:34:17;;;;;;;;;;;4.90;99.90;;;;;;5047195;28;19925;-95
2022/11/05 01:36:43;;;;;;;;;;;4.90;99.90;;;;;;5038931;28;20426;-95
2022/11/05 01:39:09;;;;;;;;;;;4.90;99.90;;;;;;5025407;28;19996;-94
2022/11/05 01:41:40;;;;;;;;;;;4.90;99.90;;;;;;5024697;28;19943;-94
2022/11/05 01:44:26;;;;;;;;;;;4.90;99.90;;;;;;5025231;28;19976;-94
2022/11/05 01:46:51;;;;;;;;;;;4.80;99.90;;;;;;5025676;28;19925;-94
2022/11/05 01:49:17;;;;;;;;;;;4.80;99.90;;;;;;5030550;28;19932;-94
2022/11/05 01:51:43;;;;;;;;;;;4.80;99.90;;;;;;5037856;28;19935;-94
2022/11/05 01:54:12;;;;;;;;;;;4.80;99.90;;;;;;5045467;28;19975;-94
2022/11/05 01:56:49;;;;;;;;;;;4.80;99.90;;;;;;5016315;28;19925;-95
2022/11/05 01:59:22;;;;;;;;;;;5.40;99.90;;;;;;5046229;28;20180;-94
2022/11/05 02:01:47;;;;;;;;;;;4.80;99.90;;;;;;5061075;28;20003;-94
2022/11/05 02:04:23;;;;;;;;;;;4.80;99.90;;;;;;5041602;28;20001;-94
2022/11/05 02:06:48;;;;;;;;;;;4.70;99.90;;;;;;5032834;28;19925;-94
2022/11/05 02:09:17;;;;;;;;;;;4.70;99.90;;;;;;5028075;28;19976;-95
2022/11/05 02:11:43;;;;;;;;;;;4.70;99.90;;;;;;5045587;28;20277;-95
2022/11/05 02:14:08;;;;;;;;;;;4.70;99.90;;;;;;5011482;28;19925;-95
2022/11/05 02:16:34;;;;;;;;;;;4.80;99.90;;;;;;5029271;28;19967;-94
2022/11/05 02:19:12;;;;;;;;;;;4.70;99.90;;;;;;5032520;28;19932;-95
2022/11/05 02:22:01;;;;;;;;;;;4.70;99.90;;;;;;5041923;28;19925;-94
2022/11/05 02:24:45;;;;;;;;;;;4.70;99.90;;;;;;5015116;28;19996;-95
2022/11/05 02:27:11;;;;;;;;;;;4.70;99.90;;;;;;5032341;28;20389;-94
2022/11/05 02:29:55;;;;;;;;;;;4.70;99.90;;;;;;5010829;28;20391;-95
2022/11/05 02:32:40;;;;;;;;;;;4.60;99.90;;;;;;5018500;28;19924;-95
2022/11/05 02:35:26;;;;;;;;;;;4.60;99.90;;;;;;5028436;28;20003;-95
2022/11/05 02:37:53;;;;;;;;;;;4.60;99.90;;;;;;5000369;28;19925;-94
2022/11/05 02:40:32;;;;;;;;;;;4.60;99.90;;;;;;5050065;28;19925;-95
2022/11/05 02:42:58;;;;;;;;;;;4.60;99.90;;;;;;5044915;28;19933;-95
2022/11/05 02:45:47;;;;;;;;;;;4.60;99.90;;;;;;5028181;28;19924;-93
2022/11/05 02:48:33;;;;;;;;;;;4.60;99.90;;;;;;5027139;28;19947;-95
2022/11/05 02:51:21;;;;;;;;;;;4.60;99.90;;;;;;5044508;28;19925;-95
2022/11/05 02:53:49;;;;;;;;;;;4.60;99.90;;;;;;5033788;28;19957;-94
2022/11/05 02:56:24;;;;;;;;;;;4.60;99.90;;;;;;5043084;28;19932;-95
2022/11/05 02:58:49;;;;;;;;;;;4.60;99.90;;;;;;5029621;28;19936;-95
2022/11/05 03:01:15;;;;;;;;;;;4.60;99.90;;;;;;5023499;28;19924;-96
2022/11/05 03:03:45;;;;;;;;;;;4.50;99.90;;;;;;5045144;28;19932;-94
2022/11/05 03:06:14;;;;;;;;;;;4.50;99.90;;;;;;5045114;28;19932;-94
2022/11/05 03:09:06;;;;;;;;;;;4.50;99.90;;;;;;5025517;28;19925;-95
2022/11/05 03:11:38;;;;;;;;;;;4.50;99.90;;;;;;5003344;28;19965;-95
2022/11/05 03:14:04;;;;;;;;;;;4.40;99.90;;;;;;5004603;28;19932;-95
2022/11/05 03:16:32;;;;;;;;;;;4.80;99.90;;;;;;5027784;28;19960;-93
2022/11/05 03:19:02;;;;;;;;;;;4.40;99.90;;;;;;5027770;28;19925;-95
2022/11/05 03:21:48;;;;;;;;;;;4.40;99.90;;;;;;5014487;28;19925;-94
2022/11/05 03:24:13;;;;;;;;;;;4.40;99.90;;;;;;5013137;28;19948;-94
2022/11/05 03:26:46;;;;;;;;;;;4.50;99.90;;;;;;5009825;28;19926;-95
2022/11/05 03:29:17;;;;;;;;;;;4.50;99.90;;;;;;5019576;28;19924;-94
2022/11/05 03:31:44;;;;;;;;;;;4.60;99.90;;;;;;5006129;28;19931;-95
2022/11/05 03:34:14;;;;;;;;;;;4.60;99.90;;;;;;5016975;28;19925;-95
2022/11/05 03:36:43;;;;;;;;;;;4.80;99.90;;;;;;5021199;28;19933;-95
2022/11/05 03:39:12;;;;;;;;;;;4.50;99.90;;;;;;5000818;28;19925;-95
2022/11/05 03:41:42;;;;;;;;;;;4.50;99.90;;;;;;5025295;28;20276;-95
2022/11/05 03:44:09;;;;;;;;;;;4.50;99.90;;;;;;5006957;28;19952;-96
2022/11/05 03:46:41;;;;;;;;;;;4.50;99.90;;;;;;5034037;28;19925;-95
2022/11/05 03:49:09;;;;;;;;;;;4.50;99.90;;;;;;5024192;28;19961;-95
2022/11/05 03:51:40;;;;;;;;;;;4.50;99.90;;;;;;5031797;28;20353;-95
2022/11/05 03:54:06;;;;;;;;;;;4.50;99.90;;;;;;5007323;28;19932;-95
2022/11/05 03:56:37;;;;;;;;;;;4.50;99.90;;;;;;5006617;28;19925;-95
2022/11/05 03:59:03;;;;;;;;;;;4.40;99.90;;;;;;5007261;28;19925;-94
2022/11/05 04:01:29;;;;;;;;;;;4.50;99.90;;;;;;5023069;28;19933;-95
2022/11/05 04:03:55;;;;;;;;;;;4.50;99.90;;;;;;5020168;28;19926;-95
2022/11/05 04:14:33;;;;;;;;;;;4.70;99.90;;;;;;5048083;28;19976;-95
2022/11/05 04:17:05;;;;;;;;;;;4.70;99.90;;;;;;5007519;28;19964;-96
2022/11/05 04:25:15;;;;;;;;;;;4.70;99.90;;;;;;5051346;28;19933;-96
2022/11/05 04:27:40;;;;;;;;;;;4.70;99.90;;;;;;5040688;28;19983;-94
2022/11/05 04:30:19;;;;;;;;;;;4.80;99.90;;;;;;5039341;28;19932;-95
2022/11/05 04:33:03;;;;;;;;;;;4.80;99.90;;;;;;5053110;28;20018;-95
2022/11/05 04:35:30;;;;;;;;;;;4.80;99.90;;;;;;5031557;28;19932;-95
2022/11/05 04:37:55;;;;;;;;;;;4.80;99.90;;;;;;5056704;28;19924;-94
2022/11/05 04:40:21;;;;;;;;;;;4.90;99.90;;;;;;5034800;28;19924;-96
2022/11/05 04:42:47;;;;;;;;;;;4.90;99.90;;;;;;5048887;28;20299;-95
2022/11/05 04:45:12;;;;;;;;;;;4.90;99.90;;;;;;5040770;28;19925;-94
2022/11/05 04:47:38;;;;;;;;;;;5.00;99.90;;;;;;5046407;28;19925;-94
2022/11/05 04:50:03;;;;;;;;;;;5.00;99.90;;;;;;5030704;28;19925;-95
2022/11/05 04:52:29;;;;;;;;;;;5.00;99.90;;;;;;5042774;28;19925;-94
2022/11/05 04:54:55;;;;;;;;;;;5.00;99.90;;;;;;5040813;28;19925;-95
2022/11/05 04:57:20;;;;;;;;;;;5.00;99.90;;;;;;5065848;28;20046;-95
2022/11/05 04:59:49;;;;;;;;;;;5.00;99.90;;;;;;5030933;28;19935;-93
2022/11/05 05:02:14;;;;;;;;;;;5.00;99.90;;;;;;5010548;28;19935;-96
2022/11/05 05:04:40;;;;;;;;;;;4.90;99.90;;;;;;5024680;28;19961;-96
2022/11/05 05:07:06;;;;;;;;;;;5.40;99.90;;;;;;5010784;28;19929;-94
2022/11/05 05:09:31;;;;;;;;;;;4.90;99.90;;;;;;5038514;28;19925;-96
2022/11/05 05:11:57;;;;;;;;;;;4.80;99.90;;;;;;5019052;28;19976;-95
2022/11/05 05:14:23;;;;;;;;;;;4.70;99.90;;;;;;5029441;28;19925;-95
2022/11/05 05:16:48;;;;;;;;;;;4.70;99.90;;;;;;5036653;28;19925;-95
2022/11/05 05:19:14;;;;;;;;;;;4.60;99.90;;;;;;5032687;28;19950;-94
2022/11/05 05:21:40;;;;;;;;;;;4.60;99.90;;;;;;5057812;28;19929;-95
2022/11/05 05:24:17;;;;;;;;;;;4.50;99.90;;;;;;5035706;28;20087;-94
2022/11/05 05:26:43;;;;;;;;;;;4.50;99.90;;;;;;5014856;28;20024;-94
2022/11/05 05:29:09;;;;;;;;;;;4.60;99.90;;;;;;5030753;28;19925;-96
2022/11/05 05:31:35;;;;;;;;;;;4.40;99.90;;;;;;5057631;28;19948;-95
2022/11/05 05:34:01;;;;;;;;;;;4.30;99.90;;;;;;5012782;28;19967;-95
2022/11/05 05:36:27;;;;;;;;;;;4.40;99.90;;;;;;5062721;28;19997;-94
2022/11/05 05:38:53;;;;;;;;;;;4.30;99.90;;;;;;5017817;28;19921;-94
2022/11/05 05:41:18;;;;;;;;;;;4.30;99.90;;;;;;4994808;28;19943;-96
2022/11/05 05:43:45;;;;;;;;;;;4.30;99.90;;;;;;4996051;28;20331;-94
2022/11/05 05:46:13;;;;;;;;;;;4.40;99.90;;;;;;5026398;28;20423;-94
2022/11/05 05:48:39;;;;;;;;;;;4.30;99.90;;;;;;5038989;28;20036;-95
2022/11/05 05:51:06;;;;;;;;;;;4.30;99.90;;;;;;4993752;28;19933;-94
2022/11/05 05:53:31;;;;;;;;;;;2.60;99.90;;;;;;5031259;28;19992;-96
2022/11/05 05:55:58;;;;;;;;;;;4.30;99.90;;;;;;5062021;28;19932;-95
2022/11/05 05:58:25;;;;;;;;;;;4.30;99.90;;;;;;5045907;28;19932;-94
2022/11/05 06:00:51;;;;;;;;;;;4.30;99.90;;;;;;5045329;28;20394;-94
2022/11/05 06:03:17;;;;;;;;;;;4.30;99.90;;;;;;5015349;28;19925;-95
2022/11/05 06:05:43;;;;;;;;;;;4.30;99.90;;;;;;5026776;28;19964;-96
2022/11/05 06:08:08;;;;;;;;;;;4.20;99.90;;;;;;5050028;28;19925;-94
2022/11/05 06:10:34;;;;;;;;;;;5.20;99.90;;;;;;5041725;28;19988;-94
2022/11/05 06:12:59;;;;;;;;;;;4.20;99.90;;;;;;5031385;28;19925;-94
2022/11/05 06:15:25;;;;;;;;;;;4.30;99.90;;;;;;5015537;28;19988;-94
2022/11/05 06:17:51;;;;;;;;;;;4.30;99.90;;;;;;5042772;28;19929;-95
2022/11/05 06:20:16;;;;;;;;;;;4.30;99.90;;;;;;5034177;28;19925;-94
2022/11/05 06:22:42;;;;;;;;;;;4.30;99.90;;;;;;5048914;28;19947;-94
2022/11/05 06:25:08;;;;;;;;;;;4.30;99.90;;;;;;5050952;28;19925;-95
2022/11/05 06:27:35;;;;;;;;;;;4.30;99.90;;;;;;5016800;28;19936;-94
2022/11/05 06:30:02;;;;;;;;;;;4.30;99.90;;;;;;5028519;28;19925;-94
2022/11/05 06:32:27;;;;;;;;;;;4.30;99.90;;;;;;5023238;28;20067;-95
2022/11/05 06:34:53;;;;;;;;;;;4.30;99.90;;;;;;5011633;28;20479;-95
2022/11/05 06:37:18;;;;;;;;;;;4.30;99.90;;;;;;5015714;28;19925;-94
2022/11/05 06:39:44;;;;;;;;;;;4.30;99.90;;;;;;5027502;28;20014;-94
2022/11/05 06:42:09;;;;;;;;;;;4.30;99.90;;;;;;5033920;28;20001;-95
2022/11/05 06:44:35;;;;;;;;;;;4.20;99.90;;;;;;5014744;28;20004;-94
2022/11/05 06:47:01;;;;;;;;;;;4.20;99.90;;;;;;5030095;28;19932;-95
2022/11/05 06:49:26;;;;;;;;;;;4.20;99.90;;;;;;5048617;28;19969;-95
2022/11/05 06:51:52;;;;;;;;;;;4.20;99.90;;;;;;5041800;28;20176;-94
2022/11/05 06:54:17;;;;;;;;;;;4.20;99.90;;;;;;5041306;28;19964;-95
2022/11/05 06:56:43;;;;;;;;;;;4.20;99.90;;;;;;5038158;28;19925;-95
2022/11/05 06:59:09;;;;;;;;;;;4.20;99.90;;;;;;5061560;28;19948;-95
2022/11/05 07:01:36;;;;;;;;;;;4.20;99.90;;;;;;5039588;28;19974;-94
2022/11/05 07:04:02;;;;;;;;;;;4.10;99.90;;;;;;5056165;28;19925;-94
2022/11/05 07:06:27;;;;;;;;;;;4.10;99.90;;;;;;5011699;28;19952;-94
2022/11/05 07:08:53;;;;;;;;;;;4.40;99.90;;;;;;5049304;28;19959;-95
2022/11/05 07:11:19;;;;;;;;;;;4.20;99.90;;;;;;5033781;28;19943;-94
2022/11/05 07:13:44;;;;;;;;;;;4.20;99.90;;;;;;5030816;28;19960;-94
2022/11/05 07:16:10;;;;;;;;;;;4.10;99.90;;;;;;5042874;28;19936;-95
2022/11/05 07:18:36;;;;;;;;;;;4.20;99.90;;;;;;5010841;28;19984;-94
2022/11/05 07:21:01;;;;;;;;;;;4.20;99.90;;;;;;5029421;28;19957;-94
2022/11/05 07:23:27;;;;;;;;;;;4.20;99.90;;;;;;5038769;28;19979;-95
2022/11/05 07:25:53;;;;;;;;;;;4.30;99.90;;;;;;5032213;28;19925;-94
2022/11/05 07:28:18;;;;;;;;;;;4.30;99.90;;;;;;5029311;28;19939;-93
2022/11/05 07:30:44;;;;;;;;;;;4.30;99.90;;;;;;5035572;28;19932;-94
2022/11/05 07:33:09;;;;;;;;;;;4.30;99.90;;;;;;5024345;28;19924;-94
2022/11/05 07:35:35;;;;;;;;;;;4.40;99.90;;;;;;5037377;28;20348;-95
2022/11/05 07:38:01;;;;;;;;;;;4.40;99.90;;;;;;5022591;28;19936;-94
2022/11/05 07:40:28;;;;;;;;;;;4.50;99.90;;;;;;5042840;28;19948;-94
2022/11/05 07:42:55;;;;;;;;;;;4.50;99.90;;;;;;5028726;28;19968;-96
2022/11/05 07:45:21;;;;;;;;;;;4.50;99.90;;;;;;5044993;28;19985;-94
2022/11/05 07:47:54;;;;;;;;;;;4.60;99.90;;;;;;5040736;28;19925;-93
2022/11/05 07:50:21;;;;;;;;;;;4.60;99.90;;;;;;5011501;28;19931;-94
2022/11/05 07:52:47;;;;;;;;;;;4.70;99.90;;;;;;5034178;28;19921;-94
2022/11/05 08:04:54;;;;;;;;;;;5.00;99.90;;;;;;5218832;22;20395;-86
2022/11/05 08:07:20;;;;;;;;;;;5.10;99.90;;;;;;4989565;28;20008;-87
2022/11/05 08:09:45;;;;;;;;;;;5.30;99.90;;;;;;5015506;28;20361;-87
2022/11/05 08:12:11;;;;;;;;;;;5.30;99.90;;;;;;4999864;28;19925;-86
2022/11/05 08:14:37;;;;;;;;;;;5.30;99.90;;;;;;4999992;28;19969;-87
2022/11/05 08:17:02;;;;;;;;;;;5.60;99.90;;;;;;5016044;28;19973;-86
2022/11/05 08:19:28;;;;;;;;;;;5.70;99.90;;;;;;5000031;28;19972;-86
2022/11/05 08:21:53;;;;;;;;;;;5.90;99.90;;;;;;5000745;28;20008;-86
2022/11/05 08:24:19;;;;;;;;;;;6.30;99.90;;;;;;4999940;28;20369;-86
2022/11/05 08:26:45;;;;;;;;;;;5.60;99.90;;;;;;5016225;28;19925;-86
2022/11/05 08:29:10;;;;;;;;;;;5.70;99.90;;;;;;5016366;28;19926;-86
2022/11/05 08:31:36;;;;;;;;;;;5.70;99.90;;;;;;5017003;28;19925;-86
2022/11/05 08:34:01;;;;;;;;;;;7.20;99.90;;;;;;5016080;28;20374;-87
2022/11/05 08:36:27;;;;;;;;;;;5.80;99.90;;;;;;5000004;28;19925;-86
2022/11/05 08:38:55;;;;;;;;;;;7.50;99.90;;;;;;4999730;28;20317;-86
2022/11/05 08:41:21;;;;;;;;;;;6.20;99.90;;;;;;4999928;28;20020;-87
2022/11/05 08:43:47;;;;;;;;;;;6.20;99.90;;;;;;4999801;28;19931;-87
2022/11/05 08:46:12;;;;;;;;;;;7.80;99.90;;;;;;4983792;28;19929;-86
2022/11/05 08:48:38;;;;;;;;;;;6.30;99.90;;;;;;5000009;28;19925;-87
2022/11/05 08:51:03;;;;;;;;;;;6.40;99.90;;;;;;4983763;28;19933;-87
2022/11/05 08:53:29;;;;;;;;;;;6.60;99.90;;;;;;5015694;28;19965;-86
2022/11/05 08:55:58;;;;;;;;;;;7.10;99.90;;;;;;5015705;28;20020;-87
2022/11/05 08:58:24;;;;;;;;;;;6.80;99.90;;;;;;5016037;28;19972;-87
2022/11/05 09:00:49;;;;;;;;;;;6.80;99.90;;;;;;4983451;28;20365;-87
2022/11/05 09:03:15;;;;;;;;;;;6.90;99.90;;;;;;4999468;28;19939;-87
2022/11/05 09:05:41;;;;;;;;;;;6.90;99.90;;;;;;5015398;28;20017;-87
2022/11/05 09:08:08;;;;;;;;;;;7.10;99.90;;;;;;5016017;28;19932;-86
2022/11/05 09:10:34;;;;;;;;;;;7.20;99.90;;;;;;5001043;28;19925;-87
2022/11/05 09:13:00;;;;;;;;;;;7.30;99.90;;;;;;5003332;28;19932;-87
2022/11/05 09:15:26;;;;;;;;;;;7.40;99.90;;;;;;5037152;28;19933;-87
2022/11/05 09:17:51;;;;;;;;;;;7.60;99.90;;;;;;5003383;28;19925;-87
2022/11/05 09:20:17;;;;;;;;;;;7.80;99.90;;;;;;4987707;28;20369;-87
2022/11/05 09:22:43;;;;;;;;;;;7.90;99.90;;;;;;5019702;28;19929;-87
2022/11/05 09:25:08;;;;;;;;;;;8.00;99.90;;;;;;5003312;28;20024;-87
2022/11/05 09:27:34;;;;;;;;;;;8.10;99.90;;;;;;5002993;28;19941;-87
2022/11/05 09:30:00;;;;;;;;;;;8.30;99.90;;;;;;5003304;28;20060;-87
2022/11/05 09:32:26;;;;;;;;;;;8.40;99.90;;;;;;4986642;28;19929;-87
2022/11/05 09:34:51;;;;;;;;;;;8.60;99.90;;;;;;5019207;28;19925;-87
2022/11/05 09:37:17;;;;;;;;;;;8.70;99.90;;;;;;5002668;28;20019;-86
2022/11/05 09:39:42;;;;;;;;;;;8.90;99.90;;;;;;5002707;28;19944;-87
2022/11/05 09:42:12;;;;;;;;;;;9.00;99.90;;;;;;5002839;28;19925;-87
2022/11/05 09:44:46;;;;;;;;;;;9.10;99.90;;;;;;5019877;28;19929;-87
2022/11/05 09:47:24;;;;;;;;;;;9.20;99.90;;;;;;5002881;28;19948;-87
2022/11/05 09:49:51;;;;;;;;;;;8.10;99.90;;;;;;5019265;28;19925;-87
2022/11/05 09:52:21;;;;;;;;;;;9.50;99.90;;;;;;5002558;28;19925;-87
2022/11/05 09:54:49;;;;;;;;;;;9.70;99.90;;;;;;5018599;28;20369;-87
2022/11/05 09:57:16;;;;;;;;;;;9.80;99.90;;;;;;4986477;28;19938;-87
2022/11/05 09:59:47;;;;;;;;;;;9.80;99.90;;;;;;5002786;28;19925;-87
2022/11/05 10:02:18;;;;;;;;;;;9.90;99.90;;;;;;5002074;28;20008;-87
2022/11/05 10:04:45;;;;;;;;;;;9.90;99.90;;;;;;5018368;28;19926;-87
2022/11/05 10:07:13;;;;;;;;;;;9.90;99.90;;;;;;5019019;28;19972;-87
2022/11/05 10:09:46;;;;;;;;;;;9.90;99.90;;;;;;5002191;28;20381;-87
2022/11/05 10:12:17;;;;;;;;;;;9.90;99.90;;;;;;5019378;28;19925;-87
2022/11/05 10:14:47;;;;;;;;;;;9.90;99.90;;;;;;5001815;28;19928;-87
2022/11/05 10:17:34;;;;;;;;;;;9.90;99.90;;;;;;5018588;28;19929;-86
2022/11/05 10:20:26;;;;;;;;;;;9.90;99.90;;;;;;5018351;28;19932;-87
2022/11/05 10:22:57;;;;;;;;;;;9.90;99.90;;;;;;5013598;28;19925;-87
2022/11/05 10:25:26;;;;;;;;;;;10.00;99.90;;;;;;5018237;28;20300;-87
2022/11/05 10:27:53;;;;;;;;;;;10.00;99.90;;;;;;5001889;28;19965;-87
2022/11/05 10:30:19;;;;;;;;;;;10.10;99.90;;;;;;5001944;28;19925;-87
2022/11/05 10:32:45;;;;;;;;;;;10.10;99.90;;;;;;5002490;28;19925;-87
2022/11/05 10:35:17;;;;;;;;;;;10.20;99.90;;;;;;5001525;28;20365;-87
2022/11/05 10:37:44;;;;;;;;;;;10.30;99.90;;;;;;5017897;28;20385;-87
2022/11/05 10:40:12;;;;;;;;;;;10.40;99.90;;;;;;5017929;28;20396;-87
2022/11/05 10:42:55;;;;;;;;;;;10.40;99.90;;;;;;5001480;28;19988;-87
2022/11/05 10:45:30;;;;;;;;;;;10.50;99.90;;;;;;5018498;28;20042;-87
2022/11/05 10:48:11;;;;;;;;;;;10.60;99.90;;;;;;5001368;28;20011;-87
2022/11/05 10:50:38;;;;;;;;;;;10.60;99.90;;;;;;5001541;28;19925;-87
2022/11/05 10:53:12;;;;;;;;;;;10.70;99.90;;;;;;5017801;28;19925;-87
2022/11/05 10:55:41;;;;;;;;;;;10.70;99.90;;;;;;5001390;28;19925;-87
2022/11/05 10:58:12;;;;;;;;;;;10.80;99.90;;;;;;5001443;28;19925;-87
2022/11/05 11:00:38;;;;;;;;;;;10.80;99.90;;;;;;5001494;28;20015;-87
2022/11/05 11:03:05;;;;;;;;;;;10.90;99.90;;;;;;5017767;28;20019;-87
2022/11/05 11:05:38;;;;;;;;;;;11.00;99.90;;;;;;5017713;28;19976;-87
2022/11/05 11:08:03;;;;;;;;;;;11.00;99.90;;;;;;5017715;28;19929;-87
2022/11/05 11:10:31;;;;;;;;;;;11.10;99.90;;;;;;5001958;28;19925;-88
2022/11/05 11:12:57;;;;;;;;;;;11.10;99.90;;;;;;5017631;28;19925;-87
2022/11/05 11:15:26;;;;;;;;;;;11.20;99.90;;;;;;4984750;28;19929;-85
2022/11/05 11:17:52;;;;;;;;;;;11.20;99.90;;;;;;5001741;28;19925;-84
2022/11/05 11:20:21;;;;;;;;;;;11.20;99.90;;;;;;5018275;28;19925;-87
2022/11/05 11:23:05;;;;;;;;;;;11.30;99.90;;;;;;5000823;28;19925;-87
2022/11/05 11:25:38;;;;;;;;;;;11.30;99.90;;;;;;5000720;28;19932;-87
2022/11/05 11:28:04;;;;;;;;;;;11.40;99.90;;;;;;5017511;28;20018;-88
2022/11/05 11:30:30;;;;;;;;;;;11.50;99.90;;;;;;5000777;28;19925;-87
2022/11/05 11:32:58;;;;;;;;;;;11.60;99.90;;;;;;5017026;28;19925;-87
2022/11/05 11:35:24;;;;;;;;;;;11.70;99.90;;;;;;5000738;28;20284;-85
2022/11/05 11:37:52;;;;;;;;;;;11.70;99.90;;;;;;5000773;28;20016;-85
2022/11/05 11:40:22;;;;;;;;;;;11.80;99.90;;;;;;5017085;28;19987;-87
2022/11/05 11:42:51;;;;;;;;;;;11.80;99.90;;;;;;5001522;28;19931;-87
2022/11/05 11:45:24;;;;;;;;;;;11.80;99.90;;;;;;5017142;28;19991;-86
2022/11/05 11:47:50;;;;;;;;;;;11.70;99.90;;;;;;5001460;28;19983;-87
2022/11/05 11:50:36;;;;;;;;;;;11.60;99.90;;;;;;4984230;28;20336;-87
2022/11/05 11:53:19;;;;;;;;;;;11.60;99.90;;;;;;5016834;28;19925;-87
2022/11/05 11:55:56;;;;;;;;;;;11.60;99.90;;;;;;5017103;28;20292;-88
2022/11/05 11:58:34;;;;;;;;;;;11.60;99.90;;;;;;5004626;28;19925;-86
2022/11/05 12:01:15;;;;;;;;;;;11.40;99.90;;;;;;5023411;28;19976;-88
2022/11/05 12:03:45;;;;;;;;;;;11.30;99.90;;;;;;5040592;28;19913;-88
2022/11/05 12:06:24;;;;;;;;;;;11.20;99.90;;;;;;5023544;28;19920;-88
2022/11/05 12:08:59;;;;;;;;;;;12.30;99.90;;;;;;5022244;28;19932;-86
2022/11/05 12:11:38;;;;;;;;;;;11.10;99.90;;;;;;5023266;28;19925;-87
2022/11/05 12:14:22;;;;;;;;;;;11.10;99.90;;;;;;5021360;28;19925;-88
2022/11/05 12:16:51;;;;;;;;;;;11.00;99.90;;;;;;5001803;28;19926;-88
2022/11/05 12:19:23;;;;;;;;;;;11.00;99.90;;;;;;5017460;28;19925;-87
2022/11/05 12:22:09;;;;;;;;;;;11.00;99.90;;;;;;5001845;28;19925;-87
2022/11/05 12:24:50;;;;;;;;;;;11.00;99.90;;;;;;5016237;28;19925;-88
2022/11/05 12:27:25;;;;;;;;;;;10.90;99.90;;;;;;5022732;28;19925;-87
2022/11/05 12:30:09;;;;;;;;;;;10.80;99.90;;;;;;5031598;28;19983;-87
2022/11/05 12:32:40;;;;;;;;;;;10.70;99.90;;;;;;5022560;28;19929;-86
2022/11/05 12:35:05;;;;;;;;;;;10.50;99.90;;;;;;5071469;28;19929;-86
2022/11/05 12:37:37;;;;;;;;;;;10.40;99.90;;;;;;5020520;28;19924;-87
2022/11/05 12:40:06;;;;;;;;;;;10.30;99.90;;;;;;5022005;28;19925;-89
2022/11/05 12:42:38;;;;;;;;;;;10.50;99.90;;;;;;5019700;28;19925;-86
2022/11/05 12:45:13;;;;;;;;;;;10.30;99.90;;;;;;5003674;28;20341;-88
2022/11/05 12:47:45;;;;;;;;;;;10.30;99.90;;;;;;5005935;28;20324;-87
2022/11/05 12:50:21;;;;;;;;;;;10.50;99.90;;;;;;5037636;28;19926;-87
2022/11/05 12:53:05;;;;;;;;;;;10.50;99.90;;;;;;5003780;28;19940;-87
2022/11/05 12:55:42;;;;;;;;;;;10.30;99.90;;;;;;5003362;28;19999;-86
2022/11/05 12:58:28;;;;;;;;;;;10.20;99.90;;;;;;5020047;28;19925;-87
2022/11/05 13:01:01;;;;;;;;;;;9.30;99.90;;;;;;4989946;28;19925;-86
2022/11/05 13:03:47;;;;;;;;;;;10.20;99.90;;;;;;5019515;28;19925;-87
2022/11/05 13:06:17;;;;;;;;;;;8.40;99.90;;;;;;5019295;28;19980;-87
2022/11/05 13:09:03;;;;;;;;;;;10.20;99.90;;;;;;5003395;28;19929;-86
2022/11/05 13:11:34;;;;;;;;;;;10.10;99.90;;;;;;5020011;28;20030;-86
2022/11/05 13:14:12;;;;;;;;;;;10.10;99.90;;;;;;5003596;28;20338;-90
2022/11/05 13:16:40;;;;;;;;;;;10.10;99.90;;;;;;5019539;28;20285;-87
2022/11/05 13:19:15;;;;;;;;;;;10.10;99.90;;;;;;5003871;28;19936;-88
2022/11/05 13:21:42;;;;;;;;;;;10.70;99.90;;;;;;5003274;28;19932;-86
2022/11/05 13:24:11;;;;;;;;;;;8.80;99.90;;;;;;5002804;28;19925;-85
2022/11/05 13:26:36;;;;;;;;;;;10.20;99.90;;;;;;5002948;28;19925;-88
2022/11/05 13:29:10;;;;;;;;;;;10.60;99.90;;;;;;5003385;28;19929;-88
2022/11/05 13:31:48;;;;;;;;;;;10.40;99.90;;;;;;5002637;28;19925;-88
2022/11/05 13:34:14;;;;;;;;;;;10.40;99.90;;;;;;5019333;28;19976;-86
2022/11/05 13:39:41;;;;;;;;;;;10.50;99.90;;;;;;5019233;28;19925;-87
2022/11/05 13:42:25;;;;;;;;;;;10.80;99.90;;;;;;5018954;28;19925;-88
2022/11/05 13:44:51;;;;;;;;;;;10.50;99.90;;;;;;5002297;28;20358;-87
2022/11/05 13:47:26;;;;;;;;;;;10.60;99.90;;;;;;5002609;28;19931;-88
2022/11/05 13:50:10;;;;;;;;;;;10.60;99.90;;;;;;5002396;28;19976;-88
2022/11/05 13:52:36;;;;;;;;;;;10.50;99.90;;;;;;5002596;28;19929;-88
2022/11/05 13:55:17;;;;;;;;;;;10.80;99.90;;;;;;5019135;28;19925;-88
2022/11/05 13:57:45;;;;;;;;;;;11.20;99.90;;;;;;5017679;28;19925;-87
2022/11/05 14:00:25;;;;;;;;;;;10.60;99.90;;;;;;5002333;28;20344;-87
2022/11/05 14:02:58;;;;;;;;;;;10.90;99.90;;;;;;5002823;28;19937;-87
2022/11/05 14:05:34;;;;;;;;;;;10.60;99.90;;;;;;5017770;28;20381;-87
2022/11/05 14:08:08;;;;;;;;;;;10.70;99.90;;;;;;5019240;28;19999;-86
2022/11/05 14:10:44;;;;;;;;;;;10.70;99.90;;;;;;5002257;28;19925;-87
2022/11/05 14:13:25;;;;;;;;;;;10.60;99.90;;;;;;5018279;28;20288;-87
2022/11/05 14:15:54;;;;;;;;;;;9.30;99.90;;;;;;5001666;28;19963;-88
2022/11/05 14:18:40;;;;;;;;;;;10.60;99.90;;;;;;4985580;28;20019;-88
2022/11/05 14:21:25;;;;;;;;;;;10.60;99.90;;;;;;5017269;28;19936;-87
2022/11/05 14:23:55;;;;;;;;;;;10.60;99.90;;;;;;5018357;28;20342;-87
2022/11/05 14:26:25;;;;;;;;;;;10.80;99.90;;;;;;5018564;28;19932;-88
2022/11/05 14:29:10;;;;;;;;;;;10.60;99.90;;;;;;5018224;28;19948;-87
2022/11/05 14:31:41;;;;;;;;;;;10.50;99.90;;;;;;5001268;28;19925;-88
2022/11/05 14:34:09;;;;;;;;;;;10.50;99.90;;;;;;5001520;28;20016;-87
2022/11/05 14:36:36;;;;;;;;;;;10.40;99.90;;;;;;5017686;28;19976;-87
2022/11/05 14:39:12;;;;;;;;;;;10.50;99.90;;;;;;4985304;28;19925;-88
2022/11/05 14:41:56;;;;;;;;;;;10.40;99.90;;;;;;5018505;28;19925;-88
2022/11/05 14:44:22;;;;;;;;;;;10.40;99.90;;;;;;5001344;28;19925;-87
2022/11/05 14:46:49;;;;;;;;;;;8.90;99.90;;;;;;5001094;28;19925;-88
2022/11/05 14:49:35;;;;;;;;;;;10.40;99.90;;;;;;5017616;28;19932;-88
2022/11/05 14:52:08;;;;;;;;;;;10.30;99.90;;;;;;4999952;28;19952;-88
2022/11/05 14:54:40;;;;;;;;;;;10.60;99.90;;;;;;5017295;28;20488;-88
2022/11/05 14:57:06;;;;;;;;;;;10.50;99.90;;;;;;5000685;28;19929;-88
2022/11/05 14:59:33;;;;;;;;;;;10.20;99.90;;;;;;5017458;28;19933;-87
2022/11/05 15:02:02;;;;;;;;;;;9.30;99.90;;;;;;5017453;28;19925;-88
2022/11/05 15:04:27;;;;;;;;;;;10.20;99.90;;;;;;5001296;28;20016;-88
2022/11/05 15:07:13;;;;;;;;;;;10.20;99.90;;;;;;5016787;28;19984;-88
2022/11/05 15:09:56;;;;;;;;;;;10.20;99.90;;;;;;5001064;28;19925;-88
2022/11/05 15:12:41;;;;;;;;;;;10.10;99.90;;;;;;5000826;28;20384;-89
2022/11/05 15:15:26;;;;;;;;;;;10.00;99.90;;;;;;5017234;28;20261;-90
2022/11/05 15:17:56;;;;;;;;;;;9.20;99.90;;;;;;5001438;28;20237;-88
2022/11/05 15:20:35;;;;;;;;;;;10.10;99.90;;;;;;5000890;28;19925;-88
2022/11/05 15:23:02;;;;;;;;;;;10.10;99.90;;;;;;5000637;28;19932;-87
2022/11/05 15:25:33;;;;;;;;;;;8.10;99.90;;;;;;5000936;28;19925;-89
2022/11/05 15:28:17;;;;;;;;;;;10.00;99.90;;;;;;5000588;28;19968;-87
2022/11/05 15:30:56;;;;;;;;;;;10.00;99.90;;;;;;5000559;28;19929;-88